Time;durP1;ratioP1;P1;durP2;ratioP2;P2;SDS_P1;SDS_P2;PMS_P1;PMS_P2;Temp;Humidity;BMP_temperature;BMP_pressure;BME280_temperature;BME280_humidity;BME280_pressure;Samples;Min_cycle;Max_cycle;Signal;HPM_P1;HPM_P2
2022/03/22 00:01:27;;;;;;;;;;;;;;;-1.99;65.91;99314.59;10332803;28;20472;-62
2022/03/22 00:06:26;;;;;;;118.55;60.53;;;;;;;-2.02;65.83;99322.91;10330321;28;19913;-62
2022/03/22 00:11:25;;;;;;;118.57;58.13;;;;;;;-2.09;65.99;99313.94;10330155;28;20480;-62
2022/03/22 00:16:24;;;;;;;106.10;55.78;;;;;;;-1.99;65.87;99319.69;10330662;28;20040;-62
2022/03/22 00:21:23;;;;;;;116.03;57.95;;;;;;;-1.97;65.96;99318.16;10331171;28;20052;-62
2022/03/22 00:26:22;;;;;;;;;;;;;;;-1.90;65.62;99321.25;10338842;28;20573;-62
2022/03/22 00:31:21;;;;;;;126.97;65.32;;;;;;;-2.46;66.53;99210.31;10338360;28;20427;-62
2022/03/22 00:36:20;;;;;;;125.60;63.15;;;;;;;-2.00;65.52;99267.06;10338339;28;20392;-62
2022/03/22 00:41:19;;;;;;;104.53;59.97;;;;;;;-1.62;66.38;99305.44;10338824;28;20076;-61
2022/03/22 00:46:18;;;;;;;110.63;62.20;;;;;;;-1.56;65.75;99304.97;10337233;28;20081;-62
2022/03/22 00:51:17;;;;;;;101.43;54.92;;;;;;;-1.89;65.94;99240.72;10337779;28;20049;-62
2022/03/22 00:56:17;;;;;;;109.78;62.00;;;;;;;-1.35;65.58;99300.53;10337291;28;20095;-61
2022/03/22 01:01:16;;;;;;;175.70;91.30;;;;;;;-1.90;65.55;99210.97;10337195;28;20061;-61
2022/03/22 01:06:15;;;;;;;161.57;84.25;;;;;;;-1.45;66.47;99286.25;10337173;28;20029;-62
2022/03/22 01:11:14;;;;;;;103.20;54.60;;;;;;;-1.71;65.66;99236.94;10336643;28;20022;-62
2022/03/22 01:16:13;;;;;;;103.18;49.92;;;;;;;-1.50;65.21;99287.59;10336287;28;20033;-62
2022/03/22 01:21:12;;;;;;;78.75;45.67;;;;;;;-1.68;65.22;99282.97;10336747;28;20049;-61
2022/03/22 01:26:11;;;;;;;84.60;46.58;;;;;;;-1.73;65.26;99281.75;10336040;28;20068;-61
2022/03/22 01:31:10;;;;;;;81.15;47.42;;;;;;;-1.76;64.97;99271.34;10335719;28;20037;-62
2022/03/22 01:36:09;;;;;;;143.32;83.97;;;;;;;-1.95;65.52;99247.91;10335334;28;20029;-62
2022/03/22 01:41:08;;;;;;;128.55;70.63;;;;;;;-1.78;65.19;99269.47;10336370;28;20030;-62
2022/03/22 01:46:07;;;;;;;87.10;48.72;;;;;;;-1.75;65.24;99273.16;10334882;28;20507;-62
2022/03/22 01:51:09;;;;;;;98.00;50.95;;;;;;;-1.78;65.78;99272.91;10335861;28;20073;-61
2022/03/22 01:56:08;;;;;;;81.82;43.63;;;;;;;-2.10;65.45;99225.69;10335870;28;20546;-61
2022/03/22 02:06:26;;;;;;;77.82;45.35;;;;;;;-2.07;65.53;99248.81;10335610;28;20072;-61
2022/03/22 02:11:25;;;;;;;90.18;50.40;;;;;;;-1.98;65.99;99257.88;10334133;28;20060;-61
2022/03/22 02:16:24;;;;;;;111.03;59.80;;;;;;;-2.41;66.45;99208.97;10334102;28;20029;-61
2022/03/22 02:21:27;;;;;;;108.50;54.50;;;;;;;-2.16;67.07;99265.06;10334597;28;20061;-61
2022/03/22 02:26:27;;;;;;;108.20;57.40;;;;;;;-2.81;67.68;99175.53;10334220;28;20071;-61
2022/03/22 02:31:27;;;;;;;114.85;60.70;;;;;;;-2.65;67.75;99213.16;10333715;28;20068;-61
2022/03/22 02:36:26;;;;;;;109.13;57.75;;;;;;;-2.41;68.17;99264.91;10333925;28;20555;-61
2022/03/22 02:41:25;;;;;;;101.18;54.03;;;;;;;-2.51;69.06;99268.41;10333010;28;20497;-61
2022/03/22 02:46:24;;;;;;;;;;;;;;;-2.57;69.33;99262.88;10333389;28;20080;-61
2022/03/22 02:51:23;;;;;;;107.60;59.60;;;;;;;-2.54;69.25;99258.91;10333402;28;19920;-61
2022/03/22 02:56:22;;;;;;;109.97;56.47;;;;;;;-2.47;70.04;99275.50;10333609;28;20052;-61
2022/03/22 03:01:21;;;;;;;95.97;52.58;;;;;;;-2.30;69.13;99272.53;10332881;28;20041;-61
2022/03/22 03:06:20;;;;;;;97.28;53.47;;;;;;;-2.29;69.18;99246.38;10332743;28;20029;-61
2022/03/22 03:11:20;;;;;;;97.95;51.97;;;;;;;-2.44;69.16;99214.72;10332103;28;20041;-61
2022/03/22 03:16:19;;;;;;;87.07;48.70;;;;;;;-2.19;69.64;99258.09;10332038;28;20065;-61
2022/03/22 03:21:18;;;;;;;97.93;51.47;;;;;;;-2.44;69.18;99204.56;10332270;28;20458;-61
2022/03/22 03:26:17;;;;;;;96.18;53.10;;;;;;;-2.18;69.55;99259.84;10331201;28;20037;-61
2022/03/22 03:31:17;;;;;;;111.55;59.17;;;;;;;-2.27;69.27;99265.13;10331602;28;20041;-61
2022/03/22 03:36:16;;;;;;;108.97;58.90;;;;;;;-2.37;69.34;99267.78;10331704;28;20075;-61
2022/03/22 03:51:50;;;;;;;91.50;48.00;;;;;;;-2.33;68.73;99248.56;10330166;28;20070;-61
2022/03/22 03:56:49;;;;;;;125.15;65.97;;;;;;;-2.38;68.74;99239.69;10330460;28;20029;-61
2022/03/22 04:01:48;;;;;;;107.70;58.08;;;;;;;-2.37;68.80;99244.91;10333070;28;20035;-61
2022/03/22 04:06:47;;;;;;;130.57;66.10;;;;;;;-2.91;68.76;99174.00;10333850;28;20033;-62
2022/03/22 04:11:46;;;;;;;123.43;62.95;;;;;;;-2.56;68.98;99239.25;10334149;28;20806;-61
2022/03/22 04:16:46;;;;;;;104.43;59.53;;;;;;;-2.58;68.93;99250.94;10333309;28;20499;-61
2022/03/22 04:21:45;;;;;;;209.70;110.30;;;;;;;-3.11;69.02;99169.94;10333517;28;20488;-61
2022/03/22 04:26:45;;;;;;;106.35;59.38;;;;;;;-3.59;69.26;99087.69;10333642;28;20061;-61
2022/03/22 04:37:01;;;;;;;111.10;58.70;;;;;;;-2.73;68.95;99250.69;10333292;28;20068;-61
2022/03/22 04:42:00;;;;;;;;;;;;;;;-2.72;69.10;99255.00;10334122;28;20048;-61
2022/03/22 04:47:00;;;;;;;123.97;62.65;;;;;;;-2.73;69.75;99253.25;10333005;28;19924;-62
2022/03/22 04:57:16;;;;;;;136.23;70.95;;;;;;;-2.61;70.08;99256.69;10333957;28;19956;-62
2022/03/22 05:02:15;;;;;;;171.48;92.20;;;;;;;-2.51;70.29;99251.50;10330138;28;20025;-61
2022/03/22 05:07:14;;;;;;;;;;;;;;;-2.41;70.59;99252.19;10329679;28;20065;-62
2022/03/22 05:12:13;;;;;;;189.48;109.80;;;;;;;-2.59;70.73;99194.16;10336862;28;19913;-62
2022/03/22 05:17:12;;;;;;;196.43;106.78;;;;;;;-2.33;70.73;99213.84;10336533;28;20411;-62
2022/03/22 05:22:11;;;;;;;198.25;109.68;;;;;;;-2.23;70.02;99192.50;10336305;28;20031;-62
2022/03/22 05:27:12;;;;;;;161.15;90.68;;;;;;;-1.98;70.49;99242.63;10336558;28;20029;-62
2022/03/22 05:32:11;;;;;;;147.07;77.05;;;;;;;-1.90;71.00;99231.31;10336147;28;20069;-62
2022/03/22 05:37:10;;;;;;;127.65;71.63;;;;;;;-1.83;70.37;99248.78;10335991;28;20033;-62
2022/03/22 05:42:09;;;;;;;121.53;66.25;;;;;;;-1.87;70.68;99221.34;10333650;28;20033;-62
2022/03/22 05:47:08;;;;;;;115.88;62.90;;;;;;;-2.22;70.40;99134.91;10334106;28;20053;-62
2022/03/22 05:52:07;;;;;;;118.93;62.55;;;;;;;-1.53;70.16;99203.38;10334928;28;20096;-62
2022/03/22 05:57:06;;;;;;;117.43;59.95;;;;;;;-1.29;69.58;99220.34;10331669;28;20056;-62
2022/03/22 06:02:05;;;;;;;103.55;55.05;;;;;;;-1.81;69.62;99088.63;10334881;28;20065;-62
2022/03/22 06:07:05;;;;;;;99.10;57.33;;;;;;;-1.80;68.68;99065.81;10332488;28;20156;-62
2022/03/22 06:12:06;;;;;;;113.60;60.92;;;;;;;-0.89;67.65;99182.28;10334081;28;20060;-62
2022/03/22 06:17:05;;;;;;;112.82;61.10;;;;;;;-0.39;67.24;99224.69;10333796;28;20072;-62
2022/03/22 06:22:04;;;;;;;97.40;55.65;;;;;;;-0.29;66.72;99196.44;10333267;28;20026;-62
2022/03/22 06:27:03;;;;;;;107.25;59.85;;;;;;;0.04;65.68;99213.03;10331065;28;20063;-62
2022/03/22 06:32:02;;;;;;;96.03;56.05;;;;;;;0.21;65.09;99192.78;10333375;28;20104;-62
2022/03/22 06:37:01;;;;;;;104.65;60.00;;;;;;;0.40;63.74;99190.59;10332044;28;20064;-62
2022/03/22 06:42:00;;;;;;;100.43;62.00;;;;;;;0.63;62.91;99183.47;10332903;28;20032;-62
2022/03/22 06:46:59;;;;;;;121.30;65.78;;;;;;;0.78;62.08;99179.28;10321449;28;20499;-62
2022/03/22 06:51:58;;;;;;;139.95;79.53;;;;;;;1.10;61.71;99204.19;10310466;28;20130;-62
2022/03/22 06:56:57;;;;;;;121.60;72.38;;;;;;;1.50;60.27;99187.75;10331238;28;20474;-62
2022/03/22 07:01:56;;;;;;;119.10;68.53;;;;;;;1.90;59.42;99195.16;10333678;28;20065;-62
2022/03/22 07:06:55;;;;;;;146.07;82.10;;;;;;;2.23;57.65;99192.69;10335562;28;20033;-62
2022/03/22 07:11:56;;;;;;;135.00;79.65;;;;;;;2.40;56.66;99176.59;10335190;28;20029;-62
2022/03/22 07:16:55;;;;;;;136.98;74.57;;;;;;;2.94;56.32;99205.06;10335235;28;20061;-62
2022/03/22 07:21:57;;;;;;;116.05;68.50;;;;;;;2.87;54.23;99144.91;10334613;28;20029;-63
2022/03/22 07:26:56;;;;;;;122.30;79.13;;;;;;;3.56;52.83;99201.38;10311143;28;20511;-62
2022/03/22 07:31:56;;;;;;;136.65;86.35;;;;;;;3.72;52.64;99188.50;10331330;28;20509;-62
2022/03/22 07:36:55;;;;;;;137.85;87.43;;;;;;;4.19;51.54;99191.59;10333892;28;20068;-60
2022/03/22 07:41:54;;;;;;;133.45;89.30;;;;;;;4.47;50.99;99193.75;10333963;28;20048;-61
2022/03/22 07:46:53;;;;;;;150.43;94.15;;;;;;;4.24;49.86;99131.91;10334482;28;20084;-62
2022/03/22 07:57:10;;;;;;;155.38;103.82;;;;;;;4.88;48.70;99180.22;10333666;28;20075;-60
2022/03/22 08:02:09;;;;;;;159.27;101.60;;;;;;;5.24;47.49;99194.66;10331750;28;20029;-60
2022/03/22 08:07:09;;;;;;;156.93;107.45;;;;;;;5.54;47.58;99179.63;10331419;28;20091;-60
2022/03/22 08:12:08;;;;;;;150.40;96.20;;;;;;;5.87;46.91;99176.69;10329643;28;20053;-60
2022/03/22 08:17:07;;;;;;;150.52;94.53;;;;;;;6.23;46.39;99190.13;10330672;28;20498;-60
2022/03/22 08:22:06;;;;;;;103.32;67.40;;;;;;;6.42;46.07;99147.03;10329884;28;20513;-60
2022/03/22 08:27:07;;;;;;;170.25;93.68;;;;;;;6.31;44.32;99134.63;10330270;28;20036;-60
2022/03/22 08:32:09;;;;;;;420.63;175.13;;;;;;;6.25;45.13;99124.06;10330230;28;20072;-60
2022/03/22 08:37:08;;;;;;;115.03;66.63;;;;;;;6.40;46.04;99145.28;10329822;28;20056;-60
2022/03/22 08:42:07;;;;;;;202.50;103.15;;;;;;;6.65;45.45;99155.63;10329621;28;20034;-60
2022/03/22 08:47:07;;;;;;;112.75;68.40;;;;;;;6.66;45.18;99145.38;10338077;28;20459;-61
2022/03/22 08:52:07;;;;;;;205.48;111.15;;;;;;;6.69;45.54;99117.09;10337540;28;20065;-61
2022/03/22 08:57:05;;;;;;;;;;;;;;;7.10;44.76;99140.94;10337598;28;20072;-61
2022/03/22 09:02:04;;;;;;;176.30;92.68;;;;;;;7.19;44.03;99120.63;10337020;28;19909;-61
2022/03/22 09:07:04;;;;;;;81.68;52.50;;;;;;;7.47;44.36;99126.72;10335882;28;20072;-61
2022/03/22 09:12:03;;;;;;;83.03;51.85;;;;;;;7.07;43.00;99009.19;10336516;28;20065;-61
2022/03/22 09:17:02;;;;;;;109.85;67.88;;;;;;;7.96;42.76;99117.09;10336285;28;20332;-61
2022/03/22 09:22:01;;;;;;;101.88;62.22;;;;;;;8.15;42.28;99092.69;10336481;28;20077;-61
2022/03/22 09:27:01;;;;;;;88.28;56.83;;;;;;;8.58;41.48;99099.13;10335977;28;20183;-61
2022/03/22 09:32:00;;;;;;;72.30;45.80;;;;;;;8.89;39.96;99098.25;10335716;28;20325;-61
2022/03/22 09:37:02;;;;;;;70.38;46.55;;;;;;;9.21;38.53;99088.78;10336484;28;20115;-61
2022/03/22 09:42:03;;;;;;;67.45;44.65;;;;;;;9.42;36.96;99077.22;10335815;28;20104;-61
2022/03/22 09:47:04;;;;;;;70.28;48.38;;;;;;;9.42;36.58;99059.97;10334885;28;20081;-61
2022/03/22 09:52:03;;;;;;;53.55;32.72;;;;;;;9.60;36.54;99069.00;10335703;28;20068;-59
2022/03/22 09:57:04;;;;;;;51.97;32.88;;;;;;;8.99;37.56;98988.06;10333688;28;20053;-60
2022/03/22 10:02:05;;;;;;;42.53;29.30;;;;;;;8.93;35.52;99041.44;10336771;28;20073;-60
2022/03/22 10:07:06;;;;;;;33.63;22.98;;;;;;;8.68;35.36;99039.03;10339334;28;20056;-60
2022/03/22 10:12:07;;;;;;;31.75;21.48;;;;;;;8.67;36.29;99021.75;10337832;28;20076;-60
2022/03/22 10:17:20;;;;;;;28.83;18.85;;;;;;;8.76;37.70;99013.34;10337509;28;20076;-59
2022/03/22 10:22:24;;;;;;;29.02;20.85;;;;;;;8.89;37.92;99003.34;10337556;28;20053;-59
2022/03/22 10:27:26;;;;;;;23.65;16.67;;;;;;;8.79;37.60;98988.44;10337064;28;20057;-59
2022/03/22 10:32:40;;;;;;;26.92;18.42;;;;;;;8.88;37.82;98986.09;10337028;28;20064;-59
2022/03/22 10:37:48;;;;;;;31.33;18.75;;;;;;;9.10;38.41;98959.00;10337293;28;20080;-59
2022/03/22 10:42:52;;;;;;;148.40;72.00;;;;;;;8.98;38.29;98887.94;10336402;28;20053;-60
2022/03/22 10:47:51;;;;;;;26.10;17.30;;;;;;;8.96;37.98;98879.25;10336442;28;20613;-60
2022/03/22 10:52:56;;;;;;;24.58;16.92;;;;;;;9.33;38.36;98933.69;10336424;28;20495;-60
2022/03/22 10:57:58;;;;;;;33.88;24.85;;;;;;;9.52;37.87;98931.50;10335908;28;20495;-60
2022/03/22 11:02:57;;;;;;;29.10;18.30;;;;;;;9.68;37.69;98919.75;10332819;28;20064;-60
2022/03/22 11:07:57;;;;;;;22.55;13.18;;;;;;;8.88;36.50;98783.28;10331583;28;20064;-60
2022/03/22 11:12:58;;;;;;;22.45;12.43;;;;;;;9.71;36.68;98888.72;10332020;28;20475;-60
2022/03/22 11:17:57;;;;;;;31.25;17.30;;;;;;;9.85;35.37;98889.88;10331837;28;20503;-60
2022/03/22 11:22:57;;;;;;;21.15;12.70;;;;;;;10.06;35.33;98847.91;10331732;28;20510;-60
2022/03/22 11:27:58;;;;;;;22.52;13.80;;;;;;;10.31;34.70;98876.91;10332253;28;20069;-60
2022/03/22 11:38:35;;;;;;;19.15;12.00;;;;;;;10.66;34.22;98850.66;10331377;28;20060;-60
2022/03/22 11:43:43;;;;;;;20.77;11.27;;;;;;;10.77;33.17;98864.69;10331476;28;20060;-60
2022/03/22 11:48:42;;;;;;;16.98;11.45;;;;;;;10.88;32.60;98825.97;10330995;28;20073;-60
2022/03/22 11:53:43;;;;;;;17.88;12.02;;;;;;;11.24;33.32;98828.19;10331964;28;20032;-61
2022/03/22 11:58:50;;;;;;;16.33;10.93;;;;;;;11.03;32.01;98826.16;10331348;28;20065;-59
2022/03/22 12:03:53;;;;;;;18.63;12.50;;;;;;;10.74;32.74;98825.72;10329554;28;20469;-60
2022/03/22 12:08:52;;;;;;;20.42;10.93;;;;;;;10.73;32.05;98817.06;10330860;28;20064;-59
2022/03/22 12:13:51;;;;;;;17.73;12.13;;;;;;;10.70;31.95;98823.91;10330593;28;20057;-59
2022/03/22 12:18:50;;;;;;;17.17;12.00;;;;;;;10.91;32.14;98807.81;10333737;28;20108;-59
2022/03/22 12:23:49;;;;;;;21.33;11.15;;;;;;;10.41;32.28;98724.00;10338547;28;20026;-59
2022/03/22 12:28:49;;;;;;;18.00;11.90;;;;;;;10.91;31.51;98807.81;10339224;28;20069;-59
2022/03/22 12:33:56;;;;;;;18.73;11.68;;;;;;;11.19;31.01;98772.69;10338231;28;20486;-59
2022/03/22 12:38:55;;;;;;;22.20;14.18;;;;;;;11.50;30.71;98775.69;10337598;28;20500;-59
2022/03/22 12:43:54;;;;;;;24.40;15.95;;;;;;;11.26;30.59;98764.13;10338155;28;20422;-59
2022/03/22 12:48:55;;;;;;;22.67;13.00;;;;;;;10.72;30.96;98685.50;10337413;28;20092;-59
2022/03/22 12:53:54;;;;;;;22.48;12.73;;;;;;;11.14;30.60;98748.41;10337377;28;20056;-59
2022/03/22 12:58:56;;;;;;;17.80;10.93;;;;;;;10.79;30.74;98715.88;10337961;28;20025;-59
2022/03/22 13:03:55;;;;;;;21.92;13.30;;;;;;;11.09;30.22;98744.88;10340393;28;20064;-59
2022/03/22 13:19:32;;;;;;;21.35;12.25;;;;;;;11.48;29.58;98723.69;10340833;28;20064;-59
2022/03/22 13:24:35;;;;;;;19.45;13.48;;;;;;;11.49;29.76;98721.97;10339645;28;20071;-59
2022/03/22 13:29:39;;;;;;;19.10;12.00;;;;;;;11.62;29.29;98723.84;10338500;28;20056;-59
2022/03/22 13:34:42;;;;;;;19.42;12.55;;;;;;;11.67;29.06;98704.81;10338293;28;20529;-59
2022/03/22 13:39:43;;;;;;;18.38;13.15;;;;;;;11.80;29.29;98726.59;10338958;28;20463;-59
2022/03/22 13:44:48;;;;;;;20.27;12.13;;;;;;;11.74;28.91;98731.75;10338560;28;20088;-59
2022/03/22 13:49:47;;;;;;;20.55;12.73;;;;;;;11.83;29.06;98705.84;10338956;28;20064;-59
2022/03/22 13:54:46;;;;;;;17.65;12.82;;;;;;;11.91;29.14;98712.84;10338517;28;20025;-59
2022/03/22 13:59:45;;;;;;;19.02;13.20;;;;;;;11.39;29.13;98636.09;10337366;28;20033;-59
2022/03/22 14:04:44;;;;;;;;;;;;;;;11.92;29.42;98686.81;10335627;28;20061;-59
2022/03/22 14:09:43;;;;;;;18.38;12.10;;;;;;;11.74;29.08;98679.75;10334522;28;19909;-59
2022/03/22 14:14:42;;;;;;;18.00;13.05;;;;;;;11.63;29.20;98642.38;10334684;28;20026;-59
2022/03/22 14:19:41;;;;;;;;;;;;;;;11.86;29.51;98664.25;10335360;28;20520;-59
2022/03/22 14:24:40;;;;;;;19.63;11.20;;;;;;;11.78;29.54;98657.22;10334001;28;20326;-59
2022/03/22 14:29:39;;;;;;;22.30;15.45;;;;;;;11.36;29.52;98565.00;10334064;28;20025;-59
2022/03/22 14:39:55;;;;;;;18.08;11.07;;;;;;;11.67;29.99;98646.75;10332972;28;20057;-59
2022/03/22 14:44:54;;;;;;;21.38;10.15;;;;;;;11.57;29.66;98635.41;10332873;28;20046;-59
2022/03/22 14:49:53;;;;;;;18.48;11.73;;;;;;;11.62;30.33;98643.25;10333491;28;20036;-59
2022/03/22 14:54:52;;;;;;;14.85;7.88;;;;;;;11.47;30.29;98643.97;10332803;28;20052;-59
2022/03/22 14:59:51;;;;;;;15.40;9.18;;;;;;;11.48;29.60;98613.63;10332528;28;20116;-59
2022/03/22 15:04:51;;;;;;;17.20;11.15;;;;;;;11.69;29.93;98613.84;10332314;28;20109;-59
2022/03/22 15:09:50;;;;;;;18.42;10.35;;;;;;;11.13;30.29;98577.81;10333064;28;20613;-59
2022/03/22 15:14:49;;;;;;;20.92;12.02;;;;;;;11.52;30.35;98628.41;10332083;28;20088;-59
2022/03/22 15:19:48;;;;;;;20.27;10.30;;;;;;;11.44;29.89;98634.41;10331876;28;20033;-59
2022/03/22 15:24:47;;;;;;;21.65;12.13;;;;;;;11.40;30.60;98596.25;10332417;28;20196;-59
2022/03/22 15:29:46;;;;;;;22.30;10.13;;;;;;;11.38;31.07;98642.13;10331730;28;20108;-59
2022/03/22 15:34:45;;;;;;;51.10;12.50;;;;;;;11.39;30.67;98640.44;10331833;28;20029;-59
2022/03/22 15:39:44;;;;;;;51.13;10.85;;;;;;;11.35;30.88;98643.84;10332339;28;20462;-59
2022/03/22 15:44:44;;;;;;;49.78;11.27;;;;;;;11.20;30.26;98649.75;10331146;28;20502;-59
2022/03/22 15:49:43;;;;;;;58.95;13.48;;;;;;;10.94;31.07;98626.06;10331098;28;20065;-59
2022/03/22 15:54:42;;;;;;;61.30;13.73;;;;;;;10.54;30.57;98612.56;10330692;28;20026;-61
2022/03/22 15:59:41;;;;;;;62.38;13.10;;;;;;;10.89;30.96;98639.00;10331113;28;20563;-59
2022/03/22 16:04:40;;;;;;;65.45;12.55;;;;;;;10.61;30.72;98606.59;10330827;28;20033;-59
2022/03/22 16:09:39;;;;;;;47.50;10.90;;;;;;;10.92;31.58;98674.53;10331511;28;20029;-59
2022/03/22 16:14:38;;;;;;;71.03;14.02;;;;;;;10.79;31.77;98676.94;10330392;28;20018;-59
2022/03/22 16:19:37;;;;;;;52.28;11.45;;;;;;;10.31;32.11;98612.28;10330741;28;20069;-59
2022/03/22 16:24:38;;;;;;;57.28;12.63;;;;;;;10.62;32.89;98707.00;10330710;28;20036;-59
2022/03/22 16:29:37;;;;;;;43.22;11.82;;;;;;;10.48;32.74;98713.72;10330257;28;20443;-59
2022/03/22 16:39:54;;;;;;;44.17;10.77;;;;;;;10.26;33.42;98723.78;10331069;28;20073;-60
2022/03/22 16:44:53;;;;;;;36.17;8.63;;;;;;;9.56;33.71;98643.97;10329530;28;20034;-59
2022/03/22 16:49:52;;;;;;;44.05;9.80;;;;;;;10.06;34.06;98727.75;10330493;28;20422;-59
2022/03/22 16:54:56;;;;;;;49.17;10.18;;;;;;;9.93;34.12;98735.34;10329978;28;20075;-59
2022/03/22 16:59:55;;;;;;;39.05;10.25;;;;;;;9.23;34.37;98631.28;10329225;28;20494;-60
2022/03/22 17:04:54;;;;;;;48.95;15.35;;;;;;;9.82;34.72;98743.78;10332267;28;20060;-59
2022/03/22 17:09:53;;;;;;;46.60;14.63;;;;;;;9.67;35.21;98752.97;10337455;28;20025;-59
2022/03/22 17:14:52;;;;;;;40.22;12.25;;;;;;;9.41;35.71;98736.94;10336599;28;20465;-59
2022/03/22 17:19:51;;;;;;;41.75;14.77;;;;;;;9.34;36.33;98761.84;10336230;28;20056;-59
2022/03/22 17:24:50;;;;;;;34.67;11.55;;;;;;;8.51;36.20;98679.84;10336599;28;20032;-59
2022/03/22 17:29:49;;;;;;;29.75;10.68;;;;;;;9.05;36.82;98789.72;10336367;28;20487;-59
2022/03/22 17:34:47;;;;;;;32.97;10.95;;;;;;;9.00;36.88;98788.75;10335846;28;20470;-59
2022/03/22 17:39:46;;;;;;;29.35;9.05;;;;;;;8.78;37.06;98778.75;10335843;28;20415;-59
2022/03/22 17:44:45;;;;;;;29.13;9.18;;;;;;;8.43;36.91;98782.25;10335387;28;20064;-60
2022/03/22 17:49:45;;;;;;;27.13;7.55;;;;;;;8.34;37.41;98753.63;10335433;28;20511;-60
2022/03/22 17:54:45;;;;;;;24.48;8.73;;;;;;;8.66;37.12;98808.69;10336351;28;20064;-60
2022/03/22 17:59:44;;;;;;;21.65;6.28;;;;;;;8.57;37.46;98815.34;10349508;28;20130;-60
2022/03/22 18:04:45;;;;;;;;;;;;;;;8.43;37.51;98794.31;10338626;28;20053;-60
2022/03/22 18:09:43;;;;;;;24.60;7.78;;;;;;;8.34;37.45;98805.34;10338356;28;19952;-60
2022/03/22 18:14:42;;;;;;;27.75;6.38;;;;;;;8.33;37.90;98808.75;10337322;28;20022;-60
2022/03/22 18:19:42;;;;;;;25.67;8.02;;;;;;;8.40;37.51;98817.53;10336454;28;20064;-60
2022/03/22 18:24:41;;;;;;;33.65;14.52;;;;;;;8.33;37.87;98828.56;10337143;28;20064;-60
2022/03/22 18:29:40;;;;;;;26.33;9.48;;;;;;;8.23;37.40;98837.81;10338277;28;20058;-60
2022/03/22 18:34:39;;;;;;;24.48;11.68;;;;;;;8.18;37.77;98840.28;10336737;28;20064;-60
2022/03/22 18:39:38;;;;;;;26.77;12.07;;;;;;;8.13;38.02;98848.72;10336440;28;20056;-60
2022/03/22 18:44:37;;;;;;;54.72;22.23;;;;;;;7.93;38.26;98855.97;10330785;28;20606;-60
2022/03/22 18:49:36;;;;;;;40.05;19.52;;;;;;;7.92;38.51;98855.09;10295929;28;20065;-60
2022/03/22 18:54:36;;;;;;;37.25;19.55;;;;;;;7.34;38.25;98774.22;10295512;28;20064;-60
2022/03/22 18:59:36;;;;;;;70.28;45.40;;;;;;;7.49;39.37;98840.09;10295105;28;20065;-60
2022/03/22 19:04:36;;;;;;;25.13;12.68;;;;;;;7.57;38.78;98867.00;10292356;28;20064;-60
2022/03/22 19:09:36;;;;;;;28.10;11.65;;;;;;;7.51;39.47;98885.78;10291377;28;20065;-60
2022/03/22 19:14:35;;;;;;;29.85;13.70;;;;;;;7.59;39.07;98884.31;10295797;28;20041;-60
2022/03/22 19:19:35;;;;;;;34.95;21.20;;;;;;;7.45;39.62;98883.00;10331854;28;20029;-60
2022/03/22 19:24:35;;;;;;;43.97;18.70;;;;;;;7.14;41.07;98902.72;10331239;28;20487;-60
2022/03/22 19:29:34;;;;;;;49.85;26.13;;;;;;;6.86;41.85;98894.94;10331278;28;20061;-60
2022/03/22 19:34:33;;;;;;;62.10;36.05;;;;;;;6.68;41.70;98919.31;10331456;28;20025;-60
2022/03/22 19:39:33;;;;;;;46.00;21.60;;;;;;;6.19;42.66;98871.25;10330086;28;20525;-60
2022/03/22 19:44:32;;;;;;;26.88;13.40;;;;;;;6.31;43.27;98933.53;10331558;28;20041;-60
2022/03/22 19:49:31;;;;;;;37.67;21.85;;;;;;;6.05;43.75;98945.50;10331682;28;20529;-60
2022/03/22 19:54:30;;;;;;;31.60;15.02;;;;;;;4.96;43.88;98781.00;10330635;28;20045;-60
2022/03/22 19:59:34;;;;;;;29.88;14.07;;;;;;;5.80;44.20;98938.56;10331280;28;20530;-60
2022/03/22 20:04:33;;;;;;;29.05;17.85;;;;;;;5.63;44.61;98942.25;10330476;28;20502;-60
2022/03/22 20:09:32;;;;;;;23.58;10.43;;;;;;;5.65;44.82;98953.44;10330188;28;20495;-60
2022/03/22 20:14:31;;;;;;;41.47;24.02;;;;;;;5.21;45.59;98893.44;10330491;28;20060;-59
2022/03/22 20:19:30;;;;;;;28.95;15.15;;;;;;;5.43;45.59;98962.94;10330875;28;20474;-60
2022/03/22 20:24:29;;;;;;;26.92;13.82;;;;;;;4.84;45.40;98861.09;10330030;28;20546;-60
2022/03/22 20:29:28;;;;;;;39.58;19.75;;;;;;;5.49;45.70;98959.72;10330827;28;20406;-60
2022/03/22 20:34:27;;;;;;;21.27;10.68;;;;;;;5.08;45.49;98902.38;10330554;28;20137;-60
2022/03/22 20:39:26;;;;;;;24.60;12.55;;;;;;;4.84;45.86;98866.25;10332357;28;20451;-59
2022/03/22 20:44:26;;;;;;;18.65;10.63;;;;;;;5.38;45.40;98959.31;10336770;28;20056;-60
2022/03/22 20:49:25;;;;;;;24.85;11.93;;;;;;;4.44;46.15;98838.94;10337517;28;20067;-60
2022/03/22 20:54:24;;;;;;;47.25;23.73;;;;;;;5.16;46.22;98988.47;10337174;28;20087;-60
2022/03/22 20:59:22;;;;;;;81.15;40.00;;;;;;;5.03;46.64;98986.22;10337885;28;20033;-60
2022/03/22 21:04:22;;;;;;;76.88;41.00;;;;;;;4.56;46.68;98923.41;10336867;28;20105;-60
2022/03/22 21:09:21;;;;;;;57.75;33.28;;;;;;;4.80;47.37;98993.81;10336963;28;20533;-60
2022/03/22 21:14:20;;;;;;;48.75;28.65;;;;;;;4.63;47.37;98995.69;10337379;28;20503;-60
2022/03/22 21:19:20;;;;;;;55.67;33.88;;;;;;;4.53;47.95;98993.56;10336254;28;20085;-60
2022/03/22 21:24:19;;;;;;;43.35;23.90;;;;;;;4.58;47.34;99002.34;10336369;28;20490;-59
2022/03/22 21:29:21;;;;;;;43.22;20.98;;;;;;;4.57;47.66;99000.59;10336504;28;20485;-59
2022/03/22 21:34:20;;;;;;;45.53;26.73;;;;;;;4.71;47.10;98999.47;10336007;28;20061;-60
2022/03/22 21:39:19;;;;;;;41.33;23.50;;;;;;;4.68;47.08;98996.75;10335669;28;20040;-60
2022/03/22 21:44:18;;;;;;;195.02;123.53;;;;;;;4.53;47.73;98998.69;10335522;28;20029;-60
2022/03/22 21:49:17;;;;;;;48.92;25.98;;;;;;;4.43;47.98;99014.50;10335408;28;20061;-60
2022/03/22 21:54:16;;;;;;;37.38;19.80;;;;;;;4.01;48.45;98971.59;10334535;28;20129;-59
2022/03/22 21:59:17;;;;;;;25.73;14.02;;;;;;;4.03;49.19;99023.03;10334772;28;20136;-60
2022/03/22 22:04:16;;;;;;;27.50;15.35;;;;;;;3.83;49.72;99020.44;10335665;28;20651;-59
2022/03/22 22:09:15;;;;;;;29.15;15.25;;;;;;;3.87;48.95;99021.47;10334512;28;20660;-60
2022/03/22 22:14:14;;;;;;;28.58;13.52;;;;;;;3.90;48.93;99021.59;10334684;28;20045;-60
2022/03/22 22:19:13;;;;;;;18.10;9.02;;;;;;;3.90;48.42;99021.59;10334345;28;20076;-59
2022/03/22 22:24:12;;;;;;;22.15;6.80;;;;;;;3.93;48.28;99018.28;10334060;28;20025;-60
2022/03/22 22:29:11;;;;;;;15.50;6.88;;;;;;;4.02;47.30;99011.88;10333852;28;20043;-59
2022/03/22 22:34:11;;;;;;;16.45;6.68;;;;;;;3.99;47.83;99023.72;10334086;28;20422;-60
2022/03/22 22:39:10;;;;;;;13.00;6.40;;;;;;;3.59;47.13;98953.44;10333299;28;20068;-59
2022/03/22 22:44:09;;;;;;;;;;;;;;;4.00;47.22;99030.59;10333624;28;20060;-60
2022/03/22 22:49:09;;;;;;;64.47;29.90;;;;;;;3.96;46.45;99032.13;10333219;28;19931;-60
2022/03/22 22:54:08;;;;;;;20.70;11.23;;;;;;;3.85;47.29;99036.78;10333135;28;20080;-59
2022/03/22 22:59:07;;;;;;;31.05;15.68;;;;;;;3.64;46.98;99011.00;10332446;28;20065;-60
2022/03/22 23:04:09;;;;;;;31.45;15.63;;;;;;;3.62;48.13;99019.44;10336180;28;20037;-60
2022/03/22 23:14:27;;;;;;;14.65;6.85;;;;;;;2.98;49.36;98982.22;10331333;28;20060;-59
2022/03/22 23:19:26;;;;;;;20.05;6.20;;;;;;;3.04;49.83;99034.59;10332488;28;20059;-59
2022/03/22 23:24:25;;;;;;;15.50;6.32;;;;;;;2.47;50.02;98973.72;10332708;28;20057;-59
2022/03/22 23:29:28;;;;;;;20.58;8.30;;;;;;;2.65;50.21;99024.13;10334845;28;20029;-59
2022/03/22 23:34:28;;;;;;;28.00;13.20;;;;;;;2.34;50.63;98981.56;10334935;28;20061;-59
2022/03/22 23:39:27;;;;;;;41.55;18.85;;;;;;;2.48;51.58;99044.63;10335109;28;20064;-59
2022/03/22 23:44:30;;;;;;;36.40;18.05;;;;;;;1.84;52.77;98983.25;10334085;28;20394;-59
2022/03/22 23:49:29;;;;;;;26.75;15.68;;;;;;;1.96;54.30;99055.56;10334776;28;20483;-59
2022/03/22 23:54:28;;;;;;;30.58;17.85;;;;;;;1.69;54.21;99010.56;10334378;28;20053;-59